createdAt,value
2018-07-01T00:00:01.337Z,1031.15519436
2018-07-01T00:00:14.302Z,1031.0874666
2018-07-01T00:00:27.368Z,1031.0874666
2018-07-01T00:00:39.789Z,1031.0874666
2018-07-01T00:00:52.196Z,1031.0874666
2018-07-01T00:01:04.635Z,1031.15519436
2018-07-01T00:01:17.253Z,1031.15519436
2018-07-01T00:01:29.681Z,1031.15519436
2018-07-01T00:01:42.094Z,1031.15519436
2018-07-01T00:01:54.510Z,1031.15519436
2018-07-01T00:02:06.916Z,1031.22292212
2018-07-01T00:02:19.314Z,1031.22292212
2018-07-01T00:02:31.710Z,1031.22292212
2018-07-01T00:02:44.108Z,1031.22292212
2018-07-01T00:02:56.520Z,1031.22292212
2018-07-01T00:03:08.937Z,1031.15519436
2018-07-01T00:03:21.341Z,1031.15519436
2018-07-01T00:03:33.733Z,1031.15519436
2018-07-01T00:03:46.160Z,1031.15519436
2018-07-01T00:03:58.573Z,1031.15519436
2018-07-01T00:04:11.017Z,1031.18905824
2018-07-01T00:04:23.433Z,1031.18905824
2018-07-01T00:04:35.886Z,1031.18905824
2018-07-01T00:04:48.275Z,1031.18905824
2018-07-01T00:05:00.671Z,1031.18905824
2018-07-01T00:05:13.129Z,1031.22292212
2018-07-01T00:05:25.538Z,1031.22292212
2018-07-01T00:05:37.927Z,1031.22292212
2018-07-01T00:05:50.337Z,1031.22292212
2018-07-01T00:06:02.737Z,1031.22292212
2018-07-01T00:06:15.141Z,1031.22292212
2018-07-01T00:06:27.532Z,1031.22292212
2018-07-01T00:06:39.928Z,1031.22292212
2018-07-01T00:06:52.322Z,1031.22292212
2018-07-01T00:07:04.988Z,1031.18905824
2018-07-01T00:07:17.369Z,1031.18905824
2018-07-01T00:07:29.766Z,1031.18905824
2018-07-01T00:07:42.167Z,1031.18905824
2018-07-01T00:07:54.566Z,1031.18905824
2018-07-01T00:08:06.962Z,1031.256786
2018-07-01T00:08:19.494Z,1031.256786
2018-07-01T00:08:31.890Z,1031.256786
2018-07-01T00:08:44.333Z,1031.256786
2018-07-01T00:08:56.737Z,1031.256786
2018-07-01T00:09:09.135Z,1031.15519436
2018-07-01T00:09:21.526Z,1031.15519436
2018-07-01T00:09:33.946Z,1031.15519436
2018-07-01T00:09:46.366Z,1031.15519436
2018-07-01T00:09:58.778Z,1031.15519436
2018-07-01T00:10:11.236Z,1031.29064989
2018-07-01T00:10:23.650Z,1031.29064989
2018-07-01T00:10:36.093Z,1031.29064989
2018-07-01T00:10:49.124Z,1031.29064989
2018-07-01T00:11:01.984Z,1031.29064989
2018-07-01T00:11:14.400Z,1031.29064989
2018-07-01T00:11:26.820Z,1031.29064989
2018-07-01T00:11:39.243Z,1031.29064989
2018-07-01T00:11:51.640Z,1031.29064989
2018-07-01T00:12:04.099Z,1031.29064989
2018-07-01T00:12:16.529Z,1031.29064989
2018-07-01T00:12:28.973Z,1031.29064989
2018-07-01T00:12:41.373Z,1031.29064989
2018-07-01T00:12:53.774Z,1031.29064989
2018-07-01T00:13:06.248Z,1031.22292212
2018-07-01T00:13:18.655Z,1031.22292212
2018-07-01T00:13:31.061Z,1031.22292212
2018-07-01T00:13:43.461Z,1031.22292212
2018-07-01T00:13:55.849Z,1031.22292212
2018-07-01T00:14:08.257Z,1031.32451377
2018-07-01T00:14:20.657Z,1031.32451377
2018-07-01T00:14:33.067Z,1031.32451377
2018-07-01T00:14:45.478Z,1031.32451377
2018-07-01T00:14:57.878Z,1031.32451377
2018-07-01T00:15:10.294Z,1031.32451377
2018-07-01T00:15:22.684Z,1031.32451377
2018-07-01T00:15:35.082Z,1031.32451377
2018-07-01T00:15:47.480Z,1031.32451377
2018-07-01T00:15:59.926Z,1031.32451377
2018-07-01T00:16:12.377Z,1031.29064989
2018-07-01T00:16:24.941Z,1031.29064989
2018-07-01T00:16:37.341Z,1031.29064989
2018-07-01T00:16:49.759Z,1031.29064989
2018-07-01T00:17:02.173Z,1031.29064989
2018-07-01T00:17:14.584Z,1031.29064989
2018-07-01T00:17:26.976Z,1031.29064989
2018-07-01T00:17:39.373Z,1031.29064989
2018-07-01T00:17:51.768Z,1031.29064989
2018-07-01T00:18:04.164Z,1031.256786
2018-07-01T00:18:16.614Z,1031.256786
2018-07-01T00:18:29.041Z,1031.256786
2018-07-01T00:18:41.470Z,1031.256786
2018-07-01T00:18:53.870Z,1031.256786
2018-07-01T00:19:06.323Z,1031.256786
2018-07-01T00:19:18.714Z,1031.256786
2018-07-01T00:19:31.108Z,1031.256786
2018-07-01T00:19:43.508Z,1031.256786
2018-07-01T00:19:55.906Z,1031.256786
2018-07-01T00:20:08.351Z,1031.256786
2018-07-01T00:20:20.761Z,1031.256786
2018-07-01T00:20:33.170Z,1031.256786
2018-07-01T00:20:45.572Z,1031.256786
2018-07-01T00:20:58.023Z,1031.256786
2018-07-01T00:21:10.427Z,1031.32451377
2018-07-01T00:21:22.816Z,1031.32451377
2018-07-01T00:21:35.206Z,1031.32451377
2018-07-01T00:21:47.600Z,1031.32451377
2018-07-01T00:21:59.989Z,1031.32451377
2018-07-01T00:22:12.402Z,1031.32451377
2018-07-01T00:22:24.808Z,1031.32451377
2018-07-01T00:22:37.201Z,1031.32451377
2018-07-01T00:22:49.610Z,1031.32451377
2018-07-01T00:23:02.043Z,1031.256786
2018-07-01T00:23:14.605Z,1031.256786
2018-07-01T00:23:27.003Z,1031.256786
2018-07-01T00:23:39.403Z,1031.256786
2018-07-01T00:23:51.831Z,1031.256786
2018-07-01T00:24:04.237Z,1031.29064989
2018-07-01T00:24:16.654Z,1031.29064989
2018-07-01T00:24:29.061Z,1031.29064989
2018-07-01T00:24:41.477Z,1031.29064989
2018-07-01T00:24:53.926Z,1031.29064989
2018-07-01T00:25:06.340Z,1031.35837765
2018-07-01T00:25:18.729Z,1031.35837765
2018-07-01T00:25:31.143Z,1031.35837765
2018-07-01T00:25:43.534Z,1031.35837765
2018-07-01T00:25:55.935Z,1031.35837765
2018-07-01T00:26:08.364Z,1031.256786
2018-07-01T00:26:20.771Z,1031.256786
2018-07-01T00:26:33.181Z,1031.256786
2018-07-01T00:26:45.589Z,1031.256786
2018-07-01T00:26:57.994Z,1031.256786
2018-07-01T00:27:10.462Z,1031.32451377
2018-07-01T00:27:22.864Z,1031.32451377
2018-07-01T00:27:35.259Z,1031.32451377
2018-07-01T00:27:47.732Z,1031.32451377
2018-07-01T00:28:00.115Z,1031.32451377
2018-07-01T00:28:12.534Z,1031.256786
2018-07-01T00:28:24.944Z,1031.256786
2018-07-01T00:28:37.337Z,1031.256786
2018-07-01T00:28:49.761Z,1031.256786
2018-07-01T00:29:02.164Z,1031.29064989
2018-07-01T00:29:14.565Z,1031.29064989
2018-07-01T00:29:26.951Z,1031.29064989
2018-07-01T00:29:39.365Z,1031.29064989
2018-07-01T00:29:51.782Z,1031.29064989
2018-07-01T00:30:04.190Z,1031.35837765
2018-07-01T00:30:16.602Z,1031.35837765
2018-07-01T00:30:28.994Z,1031.35837765
2018-07-01T00:30:41.390Z,1031.35837765
2018-07-01T00:30:53.783Z,1031.35837765
2018-07-01T00:31:06.252Z,1031.32451377
2018-07-01T00:31:18.667Z,1031.32451377
2018-07-01T00:31:31.074Z,1031.32451377
2018-07-01T00:31:43.465Z,1031.32451377
2018-07-01T00:31:55.867Z,1031.32451377
2018-07-01T00:32:08.282Z,1031.256786
2018-07-01T00:32:20.687Z,1031.256786
2018-07-01T00:32:33.076Z,1031.256786
2018-07-01T00:32:45.469Z,1031.256786
2018-07-01T00:32:57.860Z,1031.256786
2018-07-01T00:33:10.326Z,1031.35837765
2018-07-01T00:33:22.717Z,1031.35837765
2018-07-01T00:33:35.128Z,1031.35837765
2018-07-01T00:33:47.527Z,1031.35837765
2018-07-01T00:33:59.938Z,1031.35837765
2018-07-01T00:34:12.343Z,1031.42610541
2018-07-01T00:34:24.748Z,1031.42610541
2018-07-01T00:34:37.154Z,1031.42610541
2018-07-01T00:34:49.651Z,1031.42610541
2018-07-01T00:35:02.072Z,1031.29064989
2018-07-01T00:35:14.493Z,1031.29064989
2018-07-01T00:35:26.905Z,1031.29064989
2018-07-01T00:35:39.309Z,1031.29064989
2018-07-01T00:35:51.711Z,1031.29064989
2018-07-01T00:36:04.112Z,1031.39224153
2018-07-01T00:36:16.523Z,1031.39224153
2018-07-01T00:36:28.974Z,1031.39224153
2018-07-01T00:36:41.387Z,1031.39224153
2018-07-01T00:36:53.791Z,1031.39224153
2018-07-01T00:37:06.187Z,1031.39224153
2018-07-01T00:37:18.593Z,1031.39224153
2018-07-01T00:37:30.998Z,1031.39224153
2018-07-01T00:37:43.393Z,1031.39224153
2018-07-01T00:37:55.800Z,1031.39224153
2018-07-01T00:38:08.236Z,1031.32451377
2018-07-01T00:38:20.638Z,1031.32451377
2018-07-01T00:38:33.030Z,1031.32451377
2018-07-01T00:38:45.416Z,1031.32451377
2018-07-01T00:38:58.233Z,1031.32451377
2018-07-01T00:39:10.639Z,1031.29064989
2018-07-01T00:39:23.026Z,1031.29064989
2018-07-01T00:39:35.422Z,1031.29064989
2018-07-01T00:39:47.846Z,1031.29064989
2018-07-01T00:40:00.235Z,1031.29064989
2018-07-01T00:40:12.779Z,1031.29064989
2018-07-01T00:40:25.187Z,1031.29064989
2018-07-01T00:40:37.589Z,1031.29064989
2018-07-01T00:40:49.996Z,1031.29064989
2018-07-01T00:41:02.412Z,1031.29064989
2018-07-01T00:41:14.816Z,1031.29064989
2018-07-01T00:41:27.216Z,1031.29064989
2018-07-01T00:41:39.620Z,1031.29064989
2018-07-01T00:41:52.022Z,1031.29064989
2018-07-01T00:42:04.429Z,1031.32451377
2018-07-01T00:42:16.859Z,1031.32451377
2018-07-01T00:42:29.249Z,1031.32451377
2018-07-01T00:42:41.651Z,1031.32451377
2018-07-01T00:42:54.055Z,1031.32451377
2018-07-01T00:43:06.449Z,1031.29064989
2018-07-01T00:43:18.859Z,1031.29064989
2018-07-01T00:43:31.271Z,1031.29064989
2018-07-01T00:43:43.777Z,1031.29064989
2018-07-01T00:43:56.190Z,1031.29064989
2018-07-01T00:44:08.576Z,1031.29064989
2018-07-01T00:44:20.976Z,1031.29064989
2018-07-01T00:44:33.374Z,1031.29064989
2018-07-01T00:44:45.829Z,1031.29064989
2018-07-01T00:44:58.239Z,1031.29064989
2018-07-01T00:45:10.654Z,1031.22292212
2018-07-01T00:45:23.061Z,1031.22292212
2018-07-01T00:45:35.487Z,1031.22292212
2018-07-01T00:45:48.064Z,1031.22292212
2018-07-01T00:46:00.469Z,1031.22292212
2018-07-01T00:46:12.862Z,1031.39224153
2018-07-01T00:46:25.255Z,1031.39224153
2018-07-01T00:46:37.855Z,1031.39224153
2018-07-01T00:46:50.256Z,1031.39224153
2018-07-01T00:47:02.669Z,1031.39224153
2018-07-01T00:47:15.062Z,1031.39224153
2018-07-01T00:47:27.462Z,1031.39224153
2018-07-01T00:47:39.877Z,1031.39224153
2018-07-01T00:47:52.338Z,1031.39224153
2018-07-01T00:48:04.756Z,1031.32451377
2018-07-01T00:48:17.166Z,1031.32451377
2018-07-01T00:48:29.558Z,1031.32451377
2018-07-01T00:48:42.141Z,1031.32451377
2018-07-01T00:48:54.556Z,1031.32451377
2018-07-01T00:49:06.961Z,1031.29064989
2018-07-01T00:49:19.359Z,1031.29064989
2018-07-01T00:49:31.800Z,1031.29064989
2018-07-01T00:49:44.191Z,1031.29064989
2018-07-01T00:49:56.586Z,1031.29064989
2018-07-01T00:50:08.987Z,1031.32451377
2018-07-01T00:50:21.407Z,1031.32451377
2018-07-01T00:50:33.798Z,1031.32451377
2018-07-01T00:50:46.194Z,1031.32451377
2018-07-01T00:50:58.598Z,1031.32451377
2018-07-01T00:51:10.994Z,1031.29064989
2018-07-01T00:51:23.378Z,1031.29064989
2018-07-01T00:51:35.780Z,1031.29064989
2018-07-01T00:51:48.171Z,1031.29064989
2018-07-01T00:52:00.577Z,1031.29064989
2018-07-01T00:52:12.962Z,1031.32451377
2018-07-01T00:52:25.371Z,1031.32451377
2018-07-01T00:52:37.767Z,1031.32451377
2018-07-01T00:52:50.172Z,1031.32451377
2018-07-01T00:53:02.692Z,1031.22292212
2018-07-01T00:53:15.093Z,1031.22292212
2018-07-01T00:53:27.505Z,1031.22292212
2018-07-01T00:53:39.939Z,1031.22292212
2018-07-01T00:53:52.331Z,1031.22292212
2018-07-01T00:54:04.723Z,1031.35837765
2018-07-01T00:54:17.111Z,1031.35837765
2018-07-01T00:54:29.494Z,1031.35837765
2018-07-01T00:54:41.897Z,1031.35837765
2018-07-01T00:54:54.291Z,1031.35837765
2018-07-01T00:55:06.704Z,1031.35837765
2018-07-01T00:55:19.116Z,1031.35837765
2018-07-01T00:55:31.505Z,1031.35837765
2018-07-01T00:55:43.910Z,1031.35837765
2018-07-01T00:55:56.364Z,1031.35837765
2018-07-01T00:56:08.769Z,1031.29064989
2018-07-01T00:56:21.199Z,1031.29064989
2018-07-01T00:56:33.593Z,1031.29064989
2018-07-01T00:56:45.995Z,1031.29064989
2018-07-01T00:56:58.389Z,1031.29064989
2018-07-01T00:57:10.793Z,1031.35837765
2018-07-01T00:57:23.187Z,1031.35837765
2018-07-01T00:57:35.593Z,1031.35837765
2018-07-01T00:57:48.028Z,1031.35837765
2018-07-01T00:58:00.474Z,1031.35837765
2018-07-01T00:58:12.859Z,1031.32451377
2018-07-01T00:58:25.253Z,1031.32451377
2018-07-01T00:58:37.660Z,1031.32451377
2018-07-01T00:58:50.066Z,1031.32451377
2018-07-01T00:59:02.518Z,1031.35837765
2018-07-01T00:59:14.907Z,1031.35837765
2018-07-01T00:59:27.308Z,1031.35837765
2018-07-01T00:59:39.727Z,1031.35837765
2018-07-01T00:59:52.268Z,1031.35837765
2018-07-01T01:00:04.685Z,1031.32451377
2018-07-01T01:00:17.109Z,1031.32451377
2018-07-01T01:00:29.557Z,1031.32451377
2018-07-01T01:00:42.023Z,1031.32451377
2018-07-01T01:00:54.487Z,1031.32451377
2018-07-01T01:01:07.078Z,1031.32451377
2018-07-01T01:01:19.631Z,1031.32451377
2018-07-01T01:01:32.030Z,1031.32451377
2018-07-01T01:01:44.464Z,1031.32451377
2018-07-01T01:01:56.895Z,1031.32451377
2018-07-01T01:02:09.332Z,1031.32451377
2018-07-01T01:02:21.738Z,1031.32451377
2018-07-01T01:02:34.147Z,1031.32451377
2018-07-01T01:02:46.571Z,1031.32451377
2018-07-01T01:02:58.981Z,1031.32451377
2018-07-01T01:03:11.377Z,1031.29064989
2018-07-01T01:03:23.790Z,1031.29064989
2018-07-01T01:03:36.205Z,1031.29064989
2018-07-01T01:03:48.600Z,1031.29064989
2018-07-01T01:04:01.000Z,1031.29064989
2018-07-01T01:04:13.472Z,1031.35837765
2018-07-01T01:04:25.882Z,1031.35837765
2018-07-01T01:04:38.289Z,1031.35837765
2018-07-01T01:04:50.741Z,1031.35837765
2018-07-01T01:05:03.152Z,1031.32451377
2018-07-01T01:05:15.557Z,1031.32451377
2018-07-01T01:05:27.970Z,1031.32451377
2018-07-01T01:05:40.427Z,1031.32451377
2018-07-01T01:05:52.830Z,1031.32451377
2018-07-01T01:06:05.259Z,1031.39224153
2018-07-01T01:06:17.666Z,1031.39224153
2018-07-01T01:06:30.218Z,1031.39224153
2018-07-01T01:06:42.657Z,1031.39224153
2018-07-01T01:06:55.057Z,1031.39224153
2018-07-01T01:07:07.543Z,1031.35837765
2018-07-01T01:07:19.957Z,1031.35837765
2018-07-01T01:07:32.362Z,1031.35837765
2018-07-01T01:07:44.778Z,1031.35837765
2018-07-01T01:07:57.182Z,1031.35837765
2018-07-01T01:08:09.605Z,1031.35837765
2018-07-01T01:08:22.273Z,1031.35837765
2018-07-01T01:08:34.664Z,1031.35837765
2018-07-01T01:08:47.070Z,1031.35837765
2018-07-01T01:08:59.496Z,1031.35837765
2018-07-01T01:09:11.904Z,1031.35837765
2018-07-01T01:09:24.364Z,1031.35837765
2018-07-01T01:09:36.821Z,1031.35837765
2018-07-01T01:09:49.229Z,1031.35837765
2018-07-01T01:10:01.635Z,1031.35837765
2018-07-01T01:10:14.063Z,1031.39224153
2018-07-01T01:10:26.460Z,1031.39224153
2018-07-01T01:10:38.877Z,1031.39224153
2018-07-01T01:10:51.270Z,1031.39224153
2018-07-01T01:11:03.663Z,1031.32451377
2018-07-01T01:11:16.053Z,1031.32451377
2018-07-01T01:11:28.443Z,1031.32451377
2018-07-01T01:11:40.840Z,1031.32451377
2018-07-01T01:11:53.311Z,1031.32451377
2018-07-01T01:12:05.720Z,1031.39224153
2018-07-01T01:12:18.113Z,1031.39224153
2018-07-01T01:12:30.526Z,1031.39224153
2018-07-01T01:12:42.928Z,1031.39224153
2018-07-01T01:12:55.356Z,1031.39224153
2018-07-01T01:13:07.765Z,1031.39224153
2018-07-01T01:13:20.196Z,1031.39224153
2018-07-01T01:13:32.634Z,1031.39224153
2018-07-01T01:13:45.042Z,1031.39224153
2018-07-01T01:13:57.447Z,1031.39224153
2018-07-01T01:14:09.833Z,1031.39224153
2018-07-01T01:14:22.222Z,1031.39224153
2018-07-01T01:14:34.635Z,1031.39224153
2018-07-01T01:14:47.038Z,1031.39224153
2018-07-01T01:14:59.443Z,1031.39224153
2018-07-01T01:15:11.910Z,1031.32451377
2018-07-01T01:15:24.292Z,1031.32451377
2018-07-01T01:15:36.696Z,1031.32451377
2018-07-01T01:15:49.090Z,1031.32451377
2018-07-01T01:16:01.491Z,1031.32451377
2018-07-01T01:16:13.887Z,1031.32451377
2018-07-01T01:16:26.348Z,1031.32451377
2018-07-01T01:16:38.757Z,1031.32451377
2018-07-01T01:16:51.164Z,1031.32451377
2018-07-01T01:17:03.552Z,1031.35837765
2018-07-01T01:17:15.952Z,1031.35837765
2018-07-01T01:17:28.350Z,1031.35837765
2018-07-01T01:17:40.765Z,1031.35837765
2018-07-01T01:17:53.159Z,1031.35837765
2018-07-01T01:18:05.597Z,1031.29064989
2018-07-01T01:18:17.996Z,1031.29064989
2018-07-01T01:18:30.418Z,1031.29064989
2018-07-01T01:18:42.824Z,1031.29064989
2018-07-01T01:18:55.240Z,1031.29064989
2018-07-01T01:19:07.662Z,1031.39224153
2018-07-01T01:19:20.075Z,1031.39224153
2018-07-01T01:19:32.461Z,1031.39224153
2018-07-01T01:19:44.867Z,1031.39224153
2018-07-01T01:19:57.306Z,1031.39224153
2018-07-01T01:20:09.702Z,1031.35837765
2018-07-01T01:20:22.107Z,1031.35837765
2018-07-01T01:20:34.493Z,1031.35837765
2018-07-01T01:20:46.899Z,1031.35837765
2018-07-01T01:20:59.299Z,1031.35837765
2018-07-01T01:21:11.705Z,1031.35837765
2018-07-01T01:21:24.136Z,1031.35837765
2018-07-01T01:21:36.542Z,1031.35837765
2018-07-01T01:21:48.933Z,1031.35837765
2018-07-01T01:22:01.340Z,1031.35837765
2018-07-01T01:22:13.732Z,1031.29064989
2018-07-01T01:22:26.144Z,1031.29064989
2018-07-01T01:22:38.557Z,1031.29064989
2018-07-01T01:22:50.959Z,1031.29064989
2018-07-01T01:23:03.352Z,1031.35837765
2018-07-01T01:23:15.912Z,1031.35837765
2018-07-01T01:23:28.299Z,1031.35837765
2018-07-01T01:23:40.692Z,1031.35837765
2018-07-01T01:23:53.091Z,1031.35837765
2018-07-01T01:24:05.483Z,1031.256786
2018-07-01T01:24:17.900Z,1031.256786
2018-07-01T01:24:30.299Z,1031.256786
2018-07-01T01:24:42.700Z,1031.256786
2018-07-01T01:24:55.128Z,1031.256786
2018-07-01T01:25:07.512Z,1031.32451377
2018-07-01T01:25:19.945Z,1031.32451377
2018-07-01T01:25:32.346Z,1031.32451377
2018-07-01T01:25:44.732Z,1031.32451377
2018-07-01T01:25:57.139Z,1031.32451377
2018-07-01T01:26:09.530Z,1031.256786
2018-07-01T01:26:21.964Z,1031.256786
2018-07-01T01:26:34.358Z,1031.256786
2018-07-01T01:26:46.753Z,1031.256786
2018-07-01T01:26:59.156Z,1031.256786
2018-07-01T01:27:11.560Z,1031.256786
2018-07-01T01:27:23.949Z,1031.256786
2018-07-01T01:27:36.411Z,1031.256786
2018-07-01T01:27:48.809Z,1031.256786
2018-07-01T01:28:01.223Z,1031.256786
2018-07-01T01:28:13.667Z,1031.32451377
2018-07-01T01:28:26.059Z,1031.32451377
2018-07-01T01:28:38.443Z,1031.32451377
2018-07-01T01:28:50.838Z,1031.32451377
2018-07-01T01:29:03.268Z,1031.256786
2018-07-01T01:29:15.655Z,1031.256786
2018-07-01T01:29:28.057Z,1031.256786
2018-07-01T01:29:40.448Z,1031.256786
2018-07-01T01:29:52.838Z,1031.256786
2018-07-01T01:30:05.243Z,1031.18905824
2018-07-01T01:30:17.638Z,1031.18905824
2018-07-01T01:30:30.050Z,1031.18905824
2018-07-01T01:30:42.471Z,1031.18905824
2018-07-01T01:30:54.880Z,1031.18905824
2018-07-01T01:31:07.283Z,1031.256786
2018-07-01T01:31:19.689Z,1031.256786
2018-07-01T01:31:32.089Z,1031.256786
2018-07-01T01:31:44.477Z,1031.256786
2018-07-01T01:31:56.885Z,1031.256786
2018-07-01T01:32:09.282Z,1031.22292212
2018-07-01T01:32:21.678Z,1031.22292212
2018-07-01T01:32:34.077Z,1031.22292212
2018-07-01T01:32:46.486Z,1031.22292212
2018-07-01T01:32:58.883Z,1031.22292212
2018-07-01T01:33:11.346Z,1031.22292212
2018-07-01T01:33:23.748Z,1031.22292212
2018-07-01T01:33:36.148Z,1031.22292212
2018-07-01T01:33:48.539Z,1031.22292212
2018-07-01T01:34:00.932Z,1031.22292212
2018-07-01T01:34:13.328Z,1031.256786
2018-07-01T01:34:25.747Z,1031.256786
2018-07-01T01:34:38.149Z,1031.256786
2018-07-01T01:34:50.538Z,1031.256786
2018-07-01T01:35:02.935Z,1031.29064989
2018-07-01T01:35:15.348Z,1031.29064989
2018-07-01T01:35:27.760Z,1031.29064989
2018-07-01T01:35:40.149Z,1031.29064989
2018-07-01T01:35:52.543Z,1031.29064989
2018-07-01T01:36:04.934Z,1031.256786
2018-07-01T01:36:17.342Z,1031.256786
2018-07-01T01:36:29.745Z,1031.256786
2018-07-01T01:36:42.154Z,1031.256786
2018-07-01T01:36:54.555Z,1031.256786
2018-07-01T01:37:06.957Z,1031.29064989
2018-07-01T01:37:19.356Z,1031.29064989
2018-07-01T01:37:31.761Z,1031.29064989
2018-07-01T01:37:44.158Z,1031.29064989
2018-07-01T01:37:56.539Z,1031.29064989
2018-07-01T01:38:09.003Z,1031.35837765
2018-07-01T01:38:21.452Z,1031.35837765
2018-07-01T01:38:33.849Z,1031.35837765
2018-07-01T01:38:46.309Z,1031.35837765
2018-07-01T01:39:03.811Z,1031.35837765
2018-07-01T01:39:16.224Z,1031.35837765
2018-07-01T01:39:28.629Z,1031.35837765
2018-07-01T01:39:41.032Z,1031.35837765
2018-07-01T01:39:53.421Z,1031.35837765
2018-07-01T01:40:05.912Z,1031.256786
2018-07-01T01:40:18.306Z,1031.256786
2018-07-01T01:40:30.725Z,1031.256786
2018-07-01T01:40:43.132Z,1031.256786
2018-07-01T01:40:55.540Z,1031.256786
2018-07-01T01:41:07.983Z,1031.39224153
2018-07-01T01:41:20.380Z,1031.39224153
2018-07-01T01:41:32.773Z,1031.39224153
2018-07-01T01:41:45.405Z,1031.39224153
2018-07-01T01:41:57.806Z,1031.39224153
2018-07-01T01:42:10.215Z,1031.35837765
2018-07-01T01:42:22.634Z,1031.35837765
2018-07-01T01:42:35.033Z,1031.35837765
2018-07-01T01:42:47.426Z,1031.35837765
2018-07-01T01:42:59.833Z,1031.35837765
2018-07-01T01:43:12.245Z,1031.35837765
2018-07-01T01:43:24.640Z,1031.35837765
2018-07-01T01:43:37.056Z,1031.35837765
2018-07-01T01:43:49.468Z,1031.35837765
2018-07-01T01:44:01.864Z,1031.35837765
2018-07-01T01:44:14.266Z,1031.29064989
2018-07-01T01:44:26.661Z,1031.29064989
2018-07-01T01:44:39.053Z,1031.29064989
2018-07-01T01:44:51.460Z,1031.29064989
2018-07-01T01:45:03.887Z,1031.42610541
2018-07-01T01:45:16.295Z,1031.42610541
2018-07-01T01:45:28.689Z,1031.42610541
2018-07-01T01:45:41.084Z,1031.42610541
2018-07-01T01:45:53.640Z,1031.42610541
2018-07-01T01:46:06.030Z,1031.35837765
2018-07-01T01:46:18.428Z,1031.35837765
2018-07-01T01:46:30.932Z,1031.35837765
2018-07-01T01:46:43.309Z,1031.35837765
2018-07-01T01:46:55.699Z,1031.35837765
2018-07-01T01:47:08.107Z,1031.35837765
2018-07-01T01:47:20.496Z,1031.35837765
2018-07-01T01:47:32.889Z,1031.35837765
2018-07-01T01:47:45.289Z,1031.35837765
2018-07-01T01:47:57.692Z,1031.35837765
2018-07-01T01:48:10.115Z,1031.35837765
2018-07-01T01:48:22.512Z,1031.35837765
2018-07-01T01:48:34.900Z,1031.35837765
2018-07-01T01:48:47.483Z,1031.35837765
2018-07-01T01:48:59.881Z,1031.35837765
2018-07-01T01:49:12.271Z,1031.42610541
2018-07-01T01:49:24.655Z,1031.42610541
2018-07-01T01:49:37.057Z,1031.42610541
2018-07-01T01:49:49.454Z,1031.42610541
2018-07-01T01:50:01.850Z,1031.42610541
2018-07-01T01:50:14.276Z,1031.45996929
2018-07-01T01:50:26.675Z,1031.45996929
2018-07-01T01:50:39.071Z,1031.45996929
2018-07-01T01:50:51.473Z,1031.45996929
2018-07-01T01:51:03.874Z,1031.35837765
2018-07-01T01:51:16.277Z,1031.35837765
2018-07-01T01:51:28.690Z,1031.35837765
2018-07-01T01:51:41.094Z,1031.35837765
2018-07-01T01:51:53.491Z,1031.35837765
2018-07-01T01:52:05.888Z,1031.29064989
2018-07-01T01:52:18.285Z,1031.29064989
2018-07-01T01:52:30.730Z,1031.29064989
2018-07-01T01:52:43.128Z,1031.29064989
2018-07-01T01:52:55.524Z,1031.29064989
2018-07-01T01:53:07.944Z,1031.22292212
2018-07-01T01:53:20.335Z,1031.22292212
2018-07-01T01:53:32.875Z,1031.22292212
2018-07-01T01:53:45.252Z,1031.22292212
2018-07-01T01:53:57.656Z,1031.22292212
2018-07-01T01:54:10.057Z,1031.32451377
2018-07-01T01:54:22.447Z,1031.32451377
2018-07-01T01:54:34.843Z,1031.32451377
2018-07-01T01:54:47.240Z,1031.32451377
2018-07-01T01:54:59.698Z,1031.32451377
2018-07-01T01:55:12.110Z,1031.29064989
2018-07-01T01:55:24.518Z,1031.29064989
2018-07-01T01:55:36.917Z,1031.29064989
2018-07-01T01:55:49.318Z,1031.29064989
2018-07-01T01:56:01.742Z,1031.29064989
2018-07-01T01:56:14.131Z,1031.256786
2018-07-01T01:56:26.548Z,1031.256786
2018-07-01T01:56:38.965Z,1031.256786
2018-07-01T01:56:51.358Z,1031.256786
2018-07-01T01:57:03.761Z,1031.35837765
2018-07-01T01:57:16.172Z,1031.35837765
2018-07-01T01:57:28.569Z,1031.35837765
2018-07-01T01:57:40.972Z,1031.35837765
2018-07-01T01:57:53.377Z,1031.35837765
2018-07-01T01:58:05.778Z,1031.32451377
2018-07-01T01:58:18.181Z,1031.32451377
2018-07-01T01:58:30.647Z,1031.32451377
2018-07-01T01:58:43.035Z,1031.32451377
2018-07-01T01:58:55.431Z,1031.32451377
2018-07-01T01:59:07.840Z,1031.29064989
2018-07-01T01:59:20.224Z,1031.29064989
2018-07-01T01:59:32.658Z,1031.29064989
2018-07-01T01:59:45.064Z,1031.29064989
2018-07-01T01:59:57.464Z,1031.29064989
2018-07-01T02:00:09.888Z,1031.32451377
2018-07-01T02:00:22.311Z,1031.32451377
2018-07-01T02:00:34.746Z,1031.32451377
2018-07-01T02:00:47.188Z,1031.32451377
2018-07-01T02:00:59.617Z,1031.32451377
2018-07-01T02:01:12.154Z,1031.32451377
2018-07-01T02:01:24.735Z,1031.32451377
2018-07-01T02:01:37.128Z,1031.32451377
2018-07-01T02:01:49.556Z,1031.32451377
2018-07-01T02:02:01.967Z,1031.32451377
2018-07-01T02:02:14.386Z,1031.29064989
2018-07-01T02:02:26.788Z,1031.29064989
2018-07-01T02:02:39.179Z,1031.29064989
2018-07-01T02:02:51.577Z,1031.29064989
2018-07-01T02:03:03.998Z,1031.29064989
2018-07-01T02:03:16.413Z,1031.29064989
2018-07-01T02:03:28.815Z,1031.29064989
2018-07-01T02:03:41.220Z,1031.29064989
2018-07-01T02:03:53.621Z,1031.29064989
2018-07-01T02:04:06.016Z,1031.32451377
2018-07-01T02:04:18.411Z,1031.32451377
2018-07-01T02:04:30.806Z,1031.32451377
2018-07-01T02:04:43.201Z,1031.32451377
2018-07-01T02:04:55.600Z,1031.32451377
2018-07-01T02:05:08.005Z,1031.39224153
2018-07-01T02:05:20.418Z,1031.39224153
2018-07-01T02:05:32.826Z,1031.39224153
2018-07-01T02:05:45.212Z,1031.39224153
2018-07-01T02:05:57.595Z,1031.39224153
2018-07-01T02:06:10.009Z,1031.39224153
2018-07-01T02:06:22.482Z,1031.39224153
2018-07-01T02:06:35.007Z,1031.39224153
2018-07-01T02:06:47.440Z,1031.39224153
2018-07-01T02:06:59.855Z,1031.39224153
2018-07-01T02:07:12.324Z,1031.32451377
2018-07-01T02:07:24.724Z,1031.32451377
2018-07-01T02:07:37.144Z,1031.32451377
2018-07-01T02:07:49.552Z,1031.32451377
2018-07-01T02:08:01.964Z,1031.32451377